Time;durP1;ratioP1;P1;durP2;ratioP2;P2;SDS_P1;SDS_P2;PMS_P1;PMS_P2;Temp;Humidity;BMP_temperature;BMP_pressure;BME280_temperature;BME280_humidity;BME280_pressure;Samples;Min_cycle;Max_cycle;Signal;HPM_P1;HPM_P2
2023/01/16 00:02:14;;;;;;;32.53;4.57;;;;;;;;;;5033857;28;20033;-63
2023/01/16 00:04:40;;;;;;;33.20;5.97;;;;;;;;;;5033419;28;20029;-63
2023/01/16 00:07:06;;;;;;;31.83;4.63;;;;;;;;;;5033589;28;20045;-63
2023/01/16 00:09:32;;;;;;;37.15;5.90;;;;;;;;;;5033317;28;20139;-63
2023/01/16 00:11:59;;;;;;;32.83;5.55;;;;;;;;;;5033649;28;20033;-63
2023/01/16 00:14:25;;;;;;;23.27;3.92;;;;;;;;;;5033042;28;20485;-63
2023/01/16 00:16:51;;;;;;;12.32;3.05;;;;;;;;;;5034117;28;20038;-63
2023/01/16 00:19:17;;;;;;;20.85;5.28;;;;;;;;;;5033574;28;20106;-62
2023/01/16 00:21:44;;;;;;;17.80;3.20;;;;;;;;;;5023107;28;20185;-62
2023/01/16 00:24:10;;;;;;;28.80;4.63;;;;;;;;;;5015839;28;20022;-62
2023/01/16 00:26:36;;;;;;;28.55;3.70;;;;;;;;;;5025058;28;20049;-62
2023/01/16 00:29:03;;;;;;;13.32;2.58;;;;;;;;;;5031840;28;20036;-63
2023/01/16 00:31:29;;;;;;;14.32;2.25;;;;;;;;;;5035026;28;20025;-63
2023/01/16 00:33:55;;;;;;;10.40;2.20;;;;;;;;;;5035453;28;20045;-63
2023/01/16 00:36:22;;;;;;;22.35;3.63;;;;;;;;;;5034761;28;20045;-62
2023/01/16 00:38:48;;;;;;;17.13;2.60;;;;;;;;;;5035234;28;20033;-63
2023/01/16 00:41:15;;;;;;;17.27;2.50;;;;;;;;;;5035505;28;20036;-63
2023/01/16 00:43:41;;;;;;;13.23;2.47;;;;;;;;;;5034728;28;20017;-63
2023/01/16 00:46:07;;;;;;;13.55;2.33;;;;;;;;;;5034505;28;20029;-63
2023/01/16 00:48:33;;;;;;;13.50;2.15;;;;;;;;;;5034528;28;20053;-62
2023/01/16 00:50:59;;;;;;;11.55;2.47;;;;;;;;;;5035165;28;20030;-62
2023/01/16 00:53:26;;;;;;;11.98;1.77;;;;;;;;;;5034216;28;20026;-63
2023/01/16 00:55:52;;;;;;;11.38;2.08;;;;;;;;;;5015224;28;20447;-63
2023/01/16 00:58:18;;;;;;;7.68;1.70;;;;;;;;;;5014871;28;20033;-63
2023/01/16 01:00:44;;;;;;;14.00;2.08;;;;;;;;;;5014931;28;20113;-62
2023/01/16 01:03:11;;;;;;;11.23;2.00;;;;;;;;;;5015082;28;20052;-63
2023/01/16 01:05:38;;;;;;;8.80;1.58;;;;;;;;;;5014696;28;20046;-62
2023/01/16 01:08:04;;;;;;;12.27;2.08;;;;;;;;;;5015063;28;20450;-63
2023/01/16 01:10:30;;;;;;;12.90;2.25;;;;;;;;;;5014909;28;20034;-63
2023/01/16 01:12:56;;;;;;;19.35;2.63;;;;;;;;;;5014488;28;20037;-63
2023/01/16 01:15:23;;;;;;;17.98;2.97;;;;;;;;;;5014792;28;20421;-63
2023/01/16 01:17:49;;;;;;;15.13;3.42;;;;;;;;;;5019850;28;20037;-63
2023/01/16 01:20:16;;;;;;;19.17;2.33;;;;;;;;;;5033852;28;20485;-62
2023/01/16 01:22:42;;;;;;;14.57;2.85;;;;;;;;;;5033008;28;20524;-62
2023/01/16 01:25:08;;;;;;;17.38;4.43;;;;;;;;;;5034357;28;20030;-63
2023/01/16 01:27:34;;;;;;;27.48;4.88;;;;;;;;;;5033721;28;20473;-63
2023/01/16 01:30:00;;;;;;;29.67;3.28;;;;;;;;;;5034176;28;20029;-63
2023/01/16 01:32:26;;;;;;;18.98;2.88;;;;;;;;;;5034180;28;20108;-63
2023/01/16 01:34:52;;;;;;;25.65;3.15;;;;;;;;;;5033869;28;20044;-63
2023/01/16 01:37:18;;;;;;;25.23;3.28;;;;;;;;;;5034150;28;20030;-63
2023/01/16 01:39:44;;;;;;;21.75;3.45;;;;;;;;;;5034130;28;20075;-63
2023/01/16 01:44:57;;;;;;;12.35;2.28;;;;;;;;;;5033319;28;20099;-63
2023/01/16 01:47:26;;;;;;;13.88;1.88;;;;;;;;;;5034093;28;20092;-63
2023/01/16 01:49:53;;;;;;;12.25;1.98;;;;;;;;;;5033610;28;20078;-63
2023/01/16 01:52:20;;;;;;;15.23;2.65;;;;;;;;;;5033431;28;20029;-63
2023/01/16 01:54:49;;;;;;;25.95;3.15;;;;;;;;;;5033675;28;20029;-62
2023/01/16 01:57:18;;;;;;;16.75;2.97;;;;;;;;;;5033669;28;20025;-62
2023/01/16 01:59:47;;;;;;;21.38;3.30;;;;;;;;;;5033780;28;20040;-62
2023/01/16 02:02:16;;;;;;;10.70;1.77;;;;;;;;;;5033723;28;20017;-62
2023/01/16 02:04:44;;;;;;;14.38;2.22;;;;;;;;;;5033504;28;20029;-62
2023/01/16 02:07:12;;;;;;;7.93;1.27;;;;;;;;;;5033617;28;20489;-63
2023/01/16 02:09:38;;;;;;;8.45;1.23;;;;;;;;;;5033168;28;20036;-63
2023/01/16 02:12:06;;;;;;;10.93;2.28;;;;;;;;;;5033341;28;20021;-64
2023/01/16 02:14:34;;;;;;;14.45;2.20;;;;;;;;;;5033495;28;20029;-62
2023/01/16 02:19:53;;;;;;;12.00;2.78;;;;;;;;;;5033231;28;20041;-63
2023/01/16 02:22:31;;;;;;;9.13;1.75;;;;;;;;;;5014407;28;20025;-63
2023/01/16 02:25:16;;;;;;;10.48;2.00;;;;;;;;;;5013233;28;20081;-62
2023/01/16 02:28:01;;;;;;;13.13;1.90;;;;;;;;;;5013531;28;20041;-62
2023/01/16 02:30:47;;;;;;;14.27;2.38;;;;;;;;;;5013564;28;20049;-63
2023/01/16 02:33:13;;;;;;;12.77;1.48;;;;;;;;;;5030781;28;20478;-63
2023/01/16 02:35:42;;;;;;;15.15;1.73;;;;;;;;;;5030805;28;20667;-63
2023/01/16 02:38:14;;;;;;;15.88;1.67;;;;;;;;;;5038013;28;20048;-63
2023/01/16 02:40:47;;;;;;;6.88;1.60;;;;;;;;;;5046086;28;20036;-63
2023/01/16 02:43:13;;;;;;;10.90;3.00;;;;;;;;;;5041345;28;20060;-63
2023/01/16 02:45:50;;;;;;;11.82;2.83;;;;;;;;;;5050595;28;20491;-63
2023/01/16 02:48:18;;;;;;;18.00;3.08;;;;;;;;;;5050778;28;20163;-63
2023/01/16 02:50:52;;;;;;;15.27;3.33;;;;;;;;;;5046491;28;20052;-62
2023/01/16 02:53:30;;;;;;;17.40;2.63;;;;;;;;;;5030432;28;20063;-63
2023/01/16 02:56:02;;;;;;;16.30;2.30;;;;;;;;;;5029877;28;20045;-63
2023/01/16 02:58:29;;;;;;;16.35;2.58;;;;;;;;;;5030657;28;20417;-62
2023/01/16 03:00:56;;;;;;;14.30;2.38;;;;;;;;;;5046617;28;20112;-63
2023/01/16 03:03:42;;;;;;;16.10;2.90;;;;;;;;;;5033639;28;20033;-63
2023/01/16 03:06:14;;;;;;;10.75;3.33;;;;;;;;;;5050451;28;20586;-63
2023/01/16 03:08:46;;;;;;;13.77;2.55;;;;;;;;;;5049483;28;20037;-63
2023/01/16 03:11:22;;;;;;;19.95;2.60;;;;;;;;;;5029687;28;20196;-63
2023/01/16 03:14:07;;;;;;;18.95;3.42;;;;;;;;;;5032105;28;20051;-62
2023/01/16 03:16:37;;;;;;;14.00;3.50;;;;;;;;;;5032073;28;20078;-62
2023/01/16 03:19:06;;;;;;;24.27;2.70;;;;;;;;;;5031788;28;20415;-63
2023/01/16 03:21:32;;;;;;;9.68;1.83;;;;;;;;;;5032383;28;20397;-62
2023/01/16 03:36:35;;;;;;;16.83;2.92;;;;;;;;;;5110039;27;20387;-61
2023/01/16 03:39:04;;;;;;;14.20;2.60;;;;;;;;;;5110230;28;20047;-61
2023/01/16 03:41:31;;;;;;;12.07;2.10;;;;;;;;;;5109855;28;20543;-61
2023/01/16 03:44:00;;;;;;;16.27;2.83;;;;;;;;;;5109748;28;20027;-61
2023/01/16 03:46:31;;;;;;;24.90;3.38;;;;;;;;;;5110139;28;20020;-61
2023/01/16 03:49:09;;;;;;;15.65;2.85;;;;;;;;;;5109905;28;20028;-61
2023/01/16 03:51:37;;;;;;;14.65;2.83;;;;;;;;;;5109458;28;20020;-61
2023/01/16 03:54:21;;;;;;;22.83;2.70;;;;;;;;;;5109345;28;20488;-61
2023/01/16 03:57:01;;;;;;;11.85;2.42;;;;;;;;;;5109563;28;20038;-61
2023/01/16 03:59:27;;;;;;;13.90;2.90;;;;;;;;;;5109809;28;20457;-61
2023/01/16 04:01:54;;;;;;;19.20;2.60;;;;;;;;;;5109557;28;20055;-61
2023/01/16 04:04:42;;;;;;;13.18;2.70;;;;;;;;;;5109510;28;20439;-61
2023/01/16 04:07:08;;;;;;;14.25;2.20;;;;;;;;;;5109721;28;20042;-61
2023/01/16 04:09:36;;;;;;;15.63;2.42;;;;;;;;;;5109152;28;20133;-62
2023/01/16 04:12:03;;;;;;;18.90;3.80;;;;;;;;;;5109542;28;20511;-61
2023/01/16 04:14:30;;;;;;;11.10;2.53;;;;;;;;;;5109441;28;20032;-61
2023/01/16 04:16:56;;;;;;;15.07;2.78;;;;;;;;;;5109396;28;20373;-61
2023/01/16 04:19:23;;;;;;;23.27;3.38;;;;;;;;;;5109443;28;20384;-61
2023/01/16 04:21:49;;;;;;;25.77;3.78;;;;;;;;;;5109256;28;20668;-61
2023/01/16 04:24:16;;;;;;;17.88;2.72;;;;;;;;;;5108917;28;20397;-61
2023/01/16 04:26:42;;;;;;;11.48;2.97;;;;;;;;;;5099862;28;20033;-61
2023/01/16 04:29:08;;;;;;;18.45;2.75;;;;;;;;;;5082084;28;20021;-61
2023/01/16 04:31:34;;;;;;;17.55;2.85;;;;;;;;;;5068452;28;20060;-61
2023/01/16 04:34:00;;;;;;;22.65;3.70;;;;;;;;;;5068400;28;20089;-61
2023/01/16 04:36:27;;;;;;;22.13;3.22;;;;;;;;;;5060142;28;20132;-61
2023/01/16 04:38:53;;;;;;;30.23;5.50;;;;;;;;;;5066085;28;20107;-61
2023/01/16 04:41:37;;;;;;;9.38;2.35;;;;;;;;;;5087350;28;20117;-62
2023/01/16 04:44:08;;;;;;;21.73;2.83;;;;;;;;;;5075088;28;20431;-61
2023/01/16 04:46:34;;;;;;;19.70;3.58;;;;;;;;;;5074847;28;20055;-61
2023/01/16 04:49:01;;;;;;;13.60;4.45;;;;;;;;;;5074834;28;20507;-61
2023/01/16 04:51:28;;;;;;;23.80;3.22;;;;;;;;;;5075055;28;20025;-61
2023/01/16 04:53:54;;;;;;;17.85;2.80;;;;;;;;;;5074552;28;20020;-61
2023/01/16 04:56:21;;;;;;;14.45;2.45;;;;;;;;;;5074814;28;20444;-61
2023/01/16 04:58:47;;;;;;;19.75;3.20;;;;;;;;;;5074820;28;20047;-61
2023/01/16 05:01:13;;;;;;;23.10;3.33;;;;;;;;;;5074643;28;20032;-61
2023/01/16 05:03:39;;;;;;;19.92;2.67;;;;;;;;;;5074827;28;20103;-61
2023/01/16 05:06:05;;;;;;;17.63;2.95;;;;;;;;;;5074729;28;20020;-61
2023/01/16 05:08:31;;;;;;;30.35;3.78;;;;;;;;;;5074457;28;20020;-61
2023/01/16 05:11:00;;;;;;;23.95;4.25;;;;;;;;;;5074470;28;20385;-61
2023/01/16 05:13:27;;;;;;;29.13;4.38;;;;;;;;;;5074700;28;20102;-62
2023/01/16 05:15:53;;;;;;;23.83;3.95;;;;;;;;;;5074448;28;20024;-61
2023/01/16 05:18:19;;;;;;;35.13;4.40;;;;;;;;;;5074424;28;20024;-61
2023/01/16 05:20:45;;;;;;;23.35;3.78;;;;;;;;;;5074574;28;20060;-61
2023/01/16 05:23:11;;;;;;;21.65;3.75;;;;;;;;;;5073963;28;20098;-61
2023/01/16 05:25:40;;;;;;;17.38;3.03;;;;;;;;;;5074218;28;20035;-61
2023/01/16 05:28:07;;;;;;;19.33;3.08;;;;;;;;;;5074151;28;20525;-61
2023/01/16 05:30:33;;;;;;;33.97;4.45;;;;;;;;;;5074205;28;20115;-61
2023/01/16 05:32:59;;;;;;;10.77;2.50;;;;;;;;;;5074055;28;20486;-61
2023/01/16 05:35:25;;;;;;;20.33;2.45;;;;;;;;;;5074029;28;20056;-61
2023/01/16 05:37:51;;;;;;;17.70;2.00;;;;;;;;;;5072695;28;20035;-61
2023/01/16 05:40:18;;;;;;;17.27;2.78;;;;;;;;;;5081136;28;20028;-61
2023/01/16 05:42:44;;;;;;;22.60;3.60;;;;;;;;;;5075237;28;20028;-61
2023/01/16 05:45:11;;;;;;;20.67;4.13;;;;;;;;;;5072064;28;20025;-61
2023/01/16 05:47:37;;;;;;;16.77;3.38;;;;;;;;;;5069468;28;20029;-61
2023/01/16 05:50:03;;;;;;;21.05;3.00;;;;;;;;;;5070445;28;20063;-62
2023/01/16 05:52:29;;;;;;;18.55;3.03;;;;;;;;;;5072355;28;20571;-62
2023/01/16 05:54:55;;;;;;;26.52;4.10;;;;;;;;;;5071054;28;20021;-62
2023/01/16 05:57:22;;;;;;;32.80;4.57;;;;;;;;;;5072387;28;20029;-61
2023/01/16 05:59:49;;;;;;;13.90;2.58;;;;;;;;;;5072365;28;20116;-62
2023/01/16 06:02:15;;;;;;;16.27;2.30;;;;;;;;;;5071775;28;20397;-62
2023/01/16 06:04:41;;;;;;;16.13;2.92;;;;;;;;;;5075652;28;20066;-62
2023/01/16 06:07:07;;;;;;;15.40;2.95;;;;;;;;;;5070542;28;20490;-62
2023/01/16 06:09:33;;;;;;;15.35;2.83;;;;;;;;;;5072611;28;20020;-61
2023/01/16 06:11:59;;;;;;;11.70;2.80;;;;;;;;;;5078859;28;20432;-61
2023/01/16 06:14:25;;;;;;;19.45;3.50;;;;;;;;;;5078847;28;20027;-61
2023/01/16 06:16:51;;;;;;;19.48;3.15;;;;;;;;;;5083727;28;20028;-62
2023/01/16 06:19:18;;;;;;;22.90;2.97;;;;;;;;;;5072671;28;20085;-62
2023/01/16 06:21:44;;;;;;;11.07;3.92;;;;;;;;;;5075236;28;20032;-62
2023/01/16 06:24:10;;;;;;;13.65;2.25;;;;;;;;;;5073274;28;20055;-61
2023/01/16 06:26:36;;;;;;;12.52;2.80;;;;;;;;;;5068544;28;20040;-62
2023/01/16 06:29:02;;;;;;;12.52;2.53;;;;;;;;;;5077335;28;20424;-62
2023/01/16 06:31:28;;;;;;;15.25;3.28;;;;;;;;;;5071119;28;20025;-62
2023/01/16 06:33:54;;;;;;;26.33;3.70;;;;;;;;;;5070668;28;20028;-61
2023/01/16 06:36:20;;;;;;;20.70;3.10;;;;;;;;;;5073791;28;20044;-62
2023/01/16 06:38:47;;;;;;;16.05;3.17;;;;;;;;;;5054895;28;20029;-62
2023/01/16 06:41:13;;;;;;;21.15;3.72;;;;;;;;;;5059656;28;20062;-62
2023/01/16 06:43:39;;;;;;;20.02;3.45;;;;;;;;;;5074763;28;20048;-62
2023/01/16 06:46:05;;;;;;;16.63;2.83;;;;;;;;;;5071847;28;20029;-62
2023/01/16 06:48:31;;;;;;;13.98;3.08;;;;;;;;;;5071492;28;20034;-61
2023/01/16 06:50:59;;;;;;;19.77;3.08;;;;;;;;;;5070021;28;20104;-61
2023/01/16 06:53:25;;;;;;;17.05;2.92;;;;;;;;;;5070587;28;20036;-61
2023/01/16 06:55:51;;;;;;;19.95;3.17;;;;;;;;;;5070528;28;20119;-61
2023/01/16 06:58:17;;;;;;;16.88;3.30;;;;;;;;;;5069750;28;20024;-61
2023/01/16 07:00:44;;;;;;;24.48;3.63;;;;;;;;;;5069363;28;20027;-61
2023/01/16 07:03:10;;;;;;;24.27;4.25;;;;;;;;;;5060964;28;20027;-61
2023/01/16 07:05:37;;;;;;;12.75;3.08;;;;;;;;;;5052030;28;20525;-61
2023/01/16 07:08:03;;;;;;;13.98;3.25;;;;;;;;;;5055676;28;20401;-61
2023/01/16 07:10:29;;;;;;;15.45;3.25;;;;;;;;;;5053665;28;20013;-61
2023/01/16 07:12:55;;;;;;;13.48;4.30;;;;;;;;;;5050955;28;20574;-65
2023/01/16 07:23:48;;;;;;;17.85;2.47;;;;;;;;;;5053170;28;20079;-61
2023/01/16 07:26:18;;;;;;;17.70;1.85;;;;;;;;;;5053491;28;20576;-62
2023/01/16 07:28:44;;;;;;;7.80;1.92;;;;;;;;;;5073647;28;20378;-62
2023/01/16 07:31:11;;;;;;;17.63;2.35;;;;;;;;;;5091527;28;20099;-62
2023/01/16 07:33:37;;;;;;;10.35;1.73;;;;;;;;;;5091590;28;20024;-62
2023/01/16 07:36:03;;;;;;;8.77;1.80;;;;;;;;;;5090581;28;20127;-62
2023/01/16 07:38:29;;;;;;;13.15;1.90;;;;;;;;;;5090707;28;20032;-62
2023/01/16 07:40:55;;;;;;;10.20;2.78;;;;;;;;;;5092009;28;20028;-62
2023/01/16 07:43:22;;;;;;;14.30;2.63;;;;;;;;;;5090783;28;20404;-62
2023/01/16 07:45:54;;;;;;;11.93;2.47;;;;;;;;;;5092083;28;20024;-62
2023/01/16 07:48:21;;;;;;;12.17;2.07;;;;;;;;;;5092513;28;20031;-62
2023/01/16 07:50:50;;;;;;;11.45;2.22;;;;;;;;;;5092239;28;20262;-61
2023/01/16 07:53:21;;;;;;;8.50;2.00;;;;;;;;;;5092199;28;20024;-62
2023/01/16 07:55:47;;;;;;;10.13;2.38;;;;;;;;;;5092045;28;20077;-62
2023/01/16 07:58:13;;;;;;;9.00;2.38;;;;;;;;;;5092147;28;20032;-61
2023/01/16 08:00:39;;;;;;;12.13;2.72;;;;;;;;;;5092032;28;20024;-62
2023/01/16 08:03:05;;;;;;;13.57;2.65;;;;;;;;;;5091679;28;20032;-62
2023/01/16 08:05:31;;;;;;;19.42;3.13;;;;;;;;;;5091830;28;20081;-62
2023/01/16 08:07:57;;;;;;;13.13;2.88;;;;;;;;;;5091871;28;20021;-62
2023/01/16 08:10:23;;;;;;;14.15;2.28;;;;;;;;;;5091785;28;20024;-62
2023/01/16 08:12:50;;;;;;;11.60;2.28;;;;;;;;;;5095638;28;20035;-62
2023/01/16 08:15:16;;;;;;;13.40;2.30;;;;;;;;;;5095711;28;20032;-62
2023/01/16 08:17:42;;;;;;;13.57;2.30;;;;;;;;;;5095431;28;20497;-62
2023/01/16 08:20:08;;;;;;;17.50;2.55;;;;;;;;;;5095496;28;20020;-62
2023/01/16 08:22:34;;;;;;;22.00;2.38;;;;;;;;;;5095519;28;20043;-61
2023/01/16 08:25:01;;;;;;;21.77;4.80;;;;;;;;;;5095540;28;20028;-62
2023/01/16 08:27:27;;;;;;;13.32;2.45;;;;;;;;;;5087156;28;20103;-62
2023/01/16 08:29:53;;;;;;;14.75;2.70;;;;;;;;;;5075155;28;20107;-62
2023/01/16 08:32:19;;;;;;;12.52;2.42;;;;;;;;;;5074615;28;20016;-61
2023/01/16 08:34:45;;;;;;;8.95;2.50;;;;;;;;;;5074812;28;20040;-62
2023/01/16 08:37:11;;;;;;;13.35;2.63;;;;;;;;;;5075194;28;20036;-62
2023/01/16 08:39:37;;;;;;;12.25;2.30;;;;;;;;;;5074821;28;20066;-62
2023/01/16 08:53:04;;;;;;;14.05;3.60;;;;;;;;;;5074774;28;20033;-62
2023/01/16 08:55:31;;;;;;;17.10;2.88;;;;;;;;;;5077214;28;20021;-62
2023/01/16 08:57:58;;;;;;;16.42;2.55;;;;;;;;;;5094925;28;20032;-62
2023/01/16 09:00:25;;;;;;;11.40;2.47;;;;;;;;;;5094454;28;20055;-62
2023/01/16 09:02:52;;;;;;;14.27;2.25;;;;;;;;;;5094894;28;20452;-62
2023/01/16 09:05:18;;;;;;;12.48;2.38;;;;;;;;;;5075266;28;20375;-61
2023/01/16 09:07:44;;;;;;;14.05;2.80;;;;;;;;;;5082177;28;20493;-62
2023/01/16 09:10:11;;;;;;;8.77;2.70;;;;;;;;;;5074484;28;20501;-61
2023/01/16 09:15:22;;;;;;;16.80;2.17;;;;;;;;;;5094411;28;20027;-62
2023/01/16 09:17:48;;;;;;;11.57;2.28;;;;;;;;;;5094292;28;20081;-62
2023/01/16 09:20:14;;;;;;;18.35;3.17;;;;;;;;;;5080218;28;20032;-62
2023/01/16 09:22:40;;;;;;;9.40;2.30;;;;;;;;;;5091058;28;20111;-62
2023/01/16 09:25:07;;;;;;;14.15;2.60;;;;;;;;;;5094458;28;20035;-62
2023/01/16 09:27:33;;;;;;;10.85;2.13;;;;;;;;;;5073742;28;20482;-62
2023/01/16 09:29:59;;;;;;;12.23;2.40;;;;;;;;;;5070314;28;20390;-62
2023/01/16 09:32:26;;;;;;;12.82;2.42;;;;;;;;;;5074093;28;20023;-62
2023/01/16 09:34:52;;;;;;;13.10;3.10;;;;;;;;;;5073855;28;20032;-61
2023/01/16 09:37:18;;;;;;;11.00;2.33;;;;;;;;;;5072836;28;20035;-62
2023/01/16 09:39:44;;;;;;;9.35;2.50;;;;;;;;;;5073552;28;20439;-62
2023/01/16 09:45:09;;;;;;;13.57;2.25;;;;;;;;;;4991879;28;20043;-62
2023/01/16 09:47:36;;;;;;;13.80;2.83;;;;;;;;;;4992282;28;20034;-62
2023/01/16 09:50:04;;;;;;;14.18;2.72;;;;;;;;;;4992315;28;20177;-62
2023/01/16 10:01:01;;;;;;;10.95;1.95;;;;;;;;;;4992093;28;20037;-62
2023/01/16 10:03:27;;;;;;;12.82;1.98;;;;;;;;;;4992221;28;20129;-62
2023/01/16 10:06:00;;;;;;;10.40;1.90;;;;;;;;;;4991811;28;20037;-62
2023/01/16 10:08:29;;;;;;;10.75;2.38;;;;;;;;;;4991898;28;20121;-62
2023/01/16 10:11:02;;;;;;;16.45;2.15;;;;;;;;;;4991983;28;20504;-62
2023/01/16 10:13:37;;;;;;;11.48;2.03;;;;;;;;;;4991551;28;20053;-62
2023/01/16 10:16:05;;;;;;;11.05;1.85;;;;;;;;;;4991810;28;20042;-62
2023/01/16 10:18:52;;;;;;;10.32;1.90;;;;;;;;;;4991513;28;20081;-62
2023/01/16 10:21:31;;;;;;;9.73;2.10;;;;;;;;;;5026397;28;20040;-62
2023/01/16 10:24:01;;;;;;;9.63;1.65;;;;;;;;;;5072926;28;20490;-62
2023/01/16 10:26:29;;;;;;;15.80;2.80;;;;;;;;;;5072553;28;20074;-62
2023/01/16 10:28:57;;;;;;;8.50;2.50;;;;;;;;;;5072736;28;20025;-62
2023/01/16 10:31:26;;;;;;;12.40;2.42;;;;;;;;;;5073087;28;20025;-62
2023/01/16 10:34:16;;;;;;;14.25;3.90;;;;;;;;;;5072268;28;20436;-62
2023/01/16 10:36:44;;;;;;;17.02;3.42;;;;;;;;;;5067360;28;20044;-62
2023/01/16 10:39:12;;;;;;;10.48;2.35;;;;;;;;;;5072879;28;20028;-62
2023/01/16 10:50:05;;;;;;;13.50;2.75;;;;;;;;;;5072806;28;20040;-62
2023/01/16 10:52:32;;;;;;;8.85;2.00;;;;;;;;;;5071583;28;20029;-62
2023/01/16 10:54:59;;;;;;;15.38;2.92;;;;;;;;;;5072501;28;20028;-62
2023/01/16 10:57:25;;;;;;;10.88;2.20;;;;;;;;;;5072215;28;20508;-62
2023/01/16 10:59:53;;;;;;;8.43;2.28;;;;;;;;;;5072425;28;20432;-62
2023/01/16 11:02:23;;;;;;;14.32;2.17;;;;;;;;;;5072393;28;20478;-62
2023/01/16 11:04:50;;;;;;;5.15;2.05;;;;;;;;;;5072244;28;20028;-62
2023/01/16 11:07:17;;;;;;;5.80;1.23;;;;;;;;;;5089931;28;20104;-62
2023/01/16 11:09:45;;;;;;;13.82;1.83;;;;;;;;;;5092426;28;20031;-62
2023/01/16 11:18:29;;;;;;;21.50;4.50;;;;;;;;;;5078324;28;20103;-62
2023/01/16 11:20:57;;;;;;;18.38;3.70;;;;;;;;;;5072101;28;20021;-61
2023/01/16 11:23:24;;;;;;;16.35;3.75;;;;;;;;;;5074468;28;20032;-62
2023/01/16 11:25:52;;;;;;;21.08;6.22;;;;;;;;;;5078358;28;20036;-61
2023/01/16 11:28:23;;;;;;;19.23;4.55;;;;;;;;;;5087466;28;20013;-61
2023/01/16 11:30:51;;;;;;;21.63;4.82;;;;;;;;;;5066835;28;20025;-61
2023/01/16 11:33:22;;;;;;;12.48;2.60;;;;;;;;;;5085428;28;20047;-61
2023/01/16 11:36:07;;;;;;;6.72;1.90;;;;;;;;;;5079387;28;20044;-61
2023/01/16 11:38:37;;;;;;;7.60;2.92;;;;;;;;;;5079267;28;20025;-61
2023/01/16 11:41:06;;;;;;;10.68;3.42;;;;;;;;;;5069767;28;20032;-61
2023/01/16 11:46:26;;;;;;;4.97;1.92;;;;;;;;;;5069697;28;20386;-61
2023/01/16 11:48:53;;;;;;;11.55;3.17;;;;;;;;;;5072200;28;20444;-61
2023/01/16 11:51:23;;;;;;;9.20;1.80;;;;;;;;;;5075158;28;20052;-61
2023/01/16 11:53:51;;;;;;;17.73;2.13;;;;;;;;;;5073369;28;20032;-61
2023/01/16 11:56:36;;;;;;;8.63;1.73;;;;;;;;;;5074872;28;20028;-61
2023/01/16 11:59:08;;;;;;;13.40;2.13;;;;;;;;;;5055267;28;20033;-61
2023/01/16 12:04:29;;;;;;;17.50;3.63;;;;;;;;;;5075538;28;20039;-61
2023/01/16 12:07:08;;;;;;;9.32;2.20;;;;;;;;;;5085262;28;20028;-61
2023/01/16 12:09:48;;;;;;;16.15;2.55;;;;;;;;;;5071978;28;20497;-61
2023/01/16 12:15:22;;;;;;;14.40;2.33;;;;;;;;;;5079450;28;20039;-62
2023/01/16 12:17:54;;;;;;;11.40;2.38;;;;;;;;;;5056786;28;20036;-62
2023/01/16 12:20:20;;;;;;;14.75;2.35;;;;;;;;;;5077691;28;20485;-62
2023/01/16 12:22:46;;;;;;;15.65;2.45;;;;;;;;;;5073503;28;20102;-62
2023/01/16 12:25:39;;;;;;;11.55;1.90;;;;;;;;;;5073968;28;20027;-61
2023/01/16 12:28:11;;;;;;;13.70;1.83;;;;;;;;;;5069513;28;20048;-62
2023/01/16 12:30:58;;;;;;;13.77;2.15;;;;;;;;;;5071974;28;20025;-62
2023/01/16 12:33:45;;;;;;;5.40;1.30;;;;;;;;;;5073994;28;20059;-62
2023/01/16 12:36:18;;;;;;;10.13;3.10;;;;;;;;;;5073031;28;20040;-61
2023/01/16 12:38:57;;;;;;;16.85;2.63;;;;;;;;;;5072395;28;20074;-62
2023/01/16 12:44:10;;;;;;;6.40;2.30;;;;;;;;;;5066921;28;20036;-61
2023/01/16 12:46:42;;;;;;;8.70;3.13;;;;;;;;;;5064839;28;20029;-61
2023/01/16 12:49:11;;;;;;;8.50;2.37;;;;;;;;;;5085052;28;20059;-61
2023/01/16 12:51:43;;;;;;;9.77;2.40;;;;;;;;;;5086499;28;20259;-61
2023/01/16 12:54:21;;;;;;;15.65;2.70;;;;;;;;;;5063613;28;20079;-61
2023/01/16 12:56:50;;;;;;;6.90;2.20;;;;;;;;;;5053716;28;20071;-61
2023/01/16 12:59:18;;;;;;;15.15;5.47;;;;;;;;;;5054562;28;20025;-61
2023/01/16 13:01:47;;;;;;;12.32;3.08;;;;;;;;;;5054391;28;20024;-61
2023/01/16 13:04:13;;;;;;;10.00;2.20;;;;;;;;;;5054371;28;20033;-61
2023/01/16 13:06:53;;;;;;;4.43;1.75;;;;;;;;;;5054463;28;20039;-61
2023/01/16 13:09:24;;;;;;;10.10;2.70;;;;;;;;;;5068971;28;20024;-61
2023/01/16 13:15:07;;;;;;;14.15;3.10;;;;;;;;;;5029736;28;20099;-61
2023/01/16 13:17:40;;;;;;;14.73;2.40;;;;;;;;;;5029696;28;20096;-62
2023/01/16 13:20:06;;;;;;;7.10;2.20;;;;;;;;;;5029844;28;20557;-61
2023/01/16 13:23:02;;;;;;;8.07;2.40;;;;;;;;;;5009640;28;20057;-62
2023/01/16 13:25:33;;;;;;;8.80;2.83;;;;;;;;;;5005874;28;20053;-61
2023/01/16 13:28:14;;;;;;;18.58;3.40;;;;;;;;;;5010132;28;20077;-61
2023/01/16 13:30:41;;;;;;;13.20;2.58;;;;;;;;;;5012415;28;20036;-61
2023/01/16 13:33:10;;;;;;;14.07;3.15;;;;;;;;;;5012298;28;20025;-61
2023/01/16 13:35:55;;;;;;;19.13;3.80;;;;;;;;;;5011627;28;20054;-62
2023/01/16 13:38:35;;;;;;;12.75;3.80;;;;;;;;;;5011818;28;20045;-61
2023/01/16 13:41:07;;;;;;;11.18;3.17;;;;;;;;;;5011973;28;20046;-62
2023/01/16 13:46:31;;;;;;;14.50;2.78;;;;;;;;;;4972841;28;20050;-62
2023/01/16 13:49:00;;;;;;;8.60;2.45;;;;;;;;;;4991548;28;20522;-62
2023/01/16 13:51:27;;;;;;;13.57;2.80;;;;;;;;;;5011728;28;20064;-61
2023/01/16 13:53:55;;;;;;;10.18;2.38;;;;;;;;;;5011717;28;20447;-61
2023/01/16 13:56:26;;;;;;;11.57;2.92;;;;;;;;;;5011798;28;20398;-61
2023/01/16 13:58:59;;;;;;;8.63;2.88;;;;;;;;;;5011826;28;20045;-61
2023/01/16 14:01:25;;;;;;;;;;;;;;;;;;5012339;28;20034;-61
2023/01/16 14:04:09;;;;;;;14.57;4.75;;;;;;;;;;5011743;28;19916;-61
2023/01/16 14:06:43;;;;;;;8.82;2.70;;;;;;;;;;5011661;28;20045;-62
2023/01/16 14:09:18;;;;;;;13.35;2.80;;;;;;;;;;5010531;28;20080;-62
2023/01/16 14:11:44;;;;;;;10.10;2.95;;;;;;;;;;5011638;28;20088;-61
2023/01/16 14:17:12;;;;;;;17.20;4.85;;;;;;;;;;5011198;28;20052;-61
2023/01/16 14:19:51;;;;;;;8.35;3.33;;;;;;;;;;5011129;28;20471;-61
2023/01/16 14:24:47;;;;;;;14.70;4.35;;;;;;;;;;5073026;28;20489;-61
2023/01/16 14:27:18;;;;;;;17.70;4.88;;;;;;;;;;5072855;28;20031;-61
2023/01/16 14:29:54;;;;;;;17.95;4.22;;;;;;;;;;5072868;28;20039;-61
2023/01/16 14:32:23;;;;;;;17.60;4.90;;;;;;;;;;5072870;28;20524;-62
2023/01/16 14:34:55;;;;;;;19.30;5.40;;;;;;;;;;5072406;28;20048;-62
2023/01/16 14:37:21;;;;;;;19.70;5.00;;;;;;;;;;5072733;28;20366;-61
2023/01/16 14:39:49;;;;;;;20.00;6.47;;;;;;;;;;5072791;28;20105;-61
2023/01/16 14:56:33;;;;;;;15.98;4.47;;;;;;;;;;5072483;28;20035;-61
2023/01/16 14:59:04;;;;;;;24.58;5.15;;;;;;;;;;5072416;28;20024;-61
2023/01/16 15:04:22;;;;;;;11.25;2.35;;;;;;;;;;5072103;28;20036;-61
2023/01/16 15:06:57;;;;;;;7.57;1.50;;;;;;;;;;5071075;28;20025;-61
2023/01/16 15:09:23;;;;;;;6.65;1.63;;;;;;;;;;5052340;28;20124;-61
2023/01/16 15:11:57;;;;;;;10.00;2.97;;;;;;;;;;5052384;28;20029;-61
2023/01/16 15:14:27;;;;;;;6.82;1.48;;;;;;;;;;5052176;28;20601;-61
2023/01/16 15:23:05;;;;;;;12.45;3.42;;;;;;;;;;5010268;28;20458;-61
2023/01/16 15:25:34;;;;;;;6.85;2.17;;;;;;;;;;5010411;28;20049;-61
2023/01/16 15:28:03;;;;;;;10.85;2.40;;;;;;;;;;5011537;28;20022;-61
2023/01/16 15:30:30;;;;;;;2.15;0.70;;;;;;;;;;5030260;28;20033;-61
2023/01/16 15:35:41;;;;;;;6.97;1.27;;;;;;;;;;5029912;28;20141;-61
2023/01/16 15:38:09;;;;;;;2.60;1.08;;;;;;;;;;5030031;28;20046;-61
2023/01/16 15:40:35;;;;;;;9.30;1.52;;;;;;;;;;5030173;28;20135;-62
2023/01/16 15:48:48;;;;;;;6.78;1.92;;;;;;;;;;5024182;28;20029;-61
2023/01/16 15:51:16;;;;;;;6.63;1.70;;;;;;;;;;5031587;28;20037;-61
2023/01/16 15:53:46;;;;;;;5.72;1.77;;;;;;;;;;5026432;28;20036;-61
2023/01/16 15:56:25;;;;;;;9.20;2.13;;;;;;;;;;5036210;28;20072;-61
2023/01/16 15:58:52;;;;;;;3.20;1.20;;;;;;;;;;5064934;28;20071;-61
2023/01/16 16:01:29;;;;;;;5.80;1.52;;;;;;;;;;5079228;28;20036;-61
2023/01/16 16:03:56;;;;;;;3.45;1.27;;;;;;;;;;5082907;28;20477;-61
2023/01/16 16:06:22;;;;;;;2.55;1.20;;;;;;;;;;5080654;28;20017;-61
2023/01/16 16:08:50;;;;;;;2.50;1.20;;;;;;;;;;5080353;28;20028;-61
2023/01/16 16:19:49;;;;;;;4.30;1.13;;;;;;;;;;5072618;28;20024;-61
2023/01/16 16:25:16;;;;;;;3.30;1.48;;;;;;;;;;5072908;28;20040;-61
2023/01/16 16:27:42;;;;;;;5.53;1.73;;;;;;;;;;5077234;28;20017;-61
2023/01/16 16:30:15;;;;;;;7.30;1.58;;;;;;;;;;5080194;28;20028;-61
2023/01/16 16:32:41;;;;;;;5.18;1.60;;;;;;;;;;5081105;28;20021;-61
2023/01/16 16:35:17;;;;;;;7.30;2.53;;;;;;;;;;5085427;28;20052;-61
2023/01/16 16:37:46;;;;;;;4.55;1.67;;;;;;;;;;5081234;28;20149;-61
2023/01/16 16:40:14;;;;;;;4.45;1.90;;;;;;;;;;5076599;28;20493;-61
2023/01/16 16:42:46;;;;;;;4.35;1.98;;;;;;;;;;5072731;28;20075;-61
2023/01/16 16:45:18;;;;;;;9.50;1.90;;;;;;;;;;5055114;28;20036;-61
2023/01/16 16:47:46;;;;;;;10.88;2.88;;;;;;;;;;5059486;28;20036;-61
2023/01/16 16:50:25;;;;;;;7.65;3.25;;;;;;;;;;5095544;28;20032;-61
2023/01/16 16:52:51;;;;;;;10.27;2.42;;;;;;;;;;5073348;28;20048;-61
2023/01/16 16:55:27;;;;;;;7.20;2.53;;;;;;;;;;5075390;28;20078;-61
2023/01/16 16:57:53;;;;;;;9.05;3.45;;;;;;;;;;5074286;28;20036;-61